sensor_id;sensor_type;location;lat;lon;timestamp;pressure;altitude;pressure_sealevel;temperature;humidity
47082;BME280;33066;49.296;14.470;2023-10-09T00:00:09;97717.30;;;16.81;40.40
47082;BME280;33066;49.296;14.470;2023-10-09T00:02:33;97718.48;;;16.58;40.38
47082;BME280;33066;49.296;14.470;2023-10-09T00:04:58;97718.93;;;16.82;40.32
47082;BME280;33066;49.296;14.470;2023-10-09T00:07:23;97712.38;;;16.79;40.41
47082;BME280;33066;49.296;14.470;2023-10-09T00:09:49;97707.24;;;17.00;40.49
47082;BME280;33066;49.296;14.470;2023-10-09T00:12:14;97699.27;;;17.00;40.51
47082;BME280;33066;49.296;14.470;2023-10-09T00:14:39;97694.03;;;16.73;40.62
47082;BME280;33066;49.296;14.470;2023-10-09T00:17:04;97686.84;;;16.69;40.74
47082;BME280;33066;49.296;14.470;2023-10-09T00:19:31;97665.27;;;16.70;40.81
47082;BME280;33066;49.296;14.470;2023-10-09T00:21:56;97658.32;;;16.71;40.89
47082;BME280;33066;49.296;14.470;2023-10-09T00:24:22;97655.00;;;16.68;40.96
47082;BME280;33066;49.296;14.470;2023-10-09T00:26:47;97658.34;;;16.67;41.03
47082;BME280;33066;49.296;14.470;2023-10-09T00:29:13;97652.23;;;16.65;41.05
47082;BME280;33066;49.296;14.470;2023-10-09T00:31:38;97644.45;;;16.89;41.12
47082;BME280;33066;49.296;14.470;2023-10-09T00:34:04;97632.96;;;16.64;41.20
47082;BME280;33066;49.296;14.470;2023-10-09T00:36:29;97627.77;;;16.44;41.20
47082;BME280;33066;49.296;14.470;2023-10-09T00:38:55;97634.26;;;16.90;41.23
47082;BME280;33066;49.296;14.470;2023-10-09T00:41:21;97637.26;;;16.92;41.26
47082;BME280;33066;49.296;14.470;2023-10-09T00:43:47;97634.11;;;16.93;41.33
47082;BME280;33066;49.296;14.470;2023-10-09T00:46:12;97639.07;;;16.93;41.31
47082;BME280;33066;49.296;14.470;2023-10-09T00:48:37;97630.27;;;16.49;41.34
47082;BME280;33066;49.296;14.470;2023-10-09T00:51:03;97628.22;;;16.54;41.28
47082;BME280;33066;49.296;14.470;2023-10-09T00:53:28;97620.44;;;16.56;41.25
47082;BME280;33066;49.296;14.470;2023-10-09T00:55:54;97609.91;;;16.83;41.22
47082;BME280;33066;49.296;14.470;2023-10-09T00:58:18;97597.60;;;16.84;41.19
47082;BME280;33066;49.296;14.470;2023-10-09T01:00:44;97585.48;;;16.84;41.27
47082;BME280;33066;49.296;14.470;2023-10-09T01:03:10;97577.93;;;17.09;41.25
47082;BME280;33066;49.296;14.470;2023-10-09T01:05:35;97575.13;;;16.83;41.16
47082;BME280;33066;49.296;14.470;2023-10-09T01:08:00;97572.05;;;16.83;41.16
47082;BME280;33066;49.296;14.470;2023-10-09T01:10:25;97569.76;;;16.84;41.16
47082;BME280;33066;49.296;14.470;2023-10-09T01:12:50;97568.66;;;16.83;41.15
47082;BME280;33066;49.296;14.470;2023-10-09T01:15:16;97562.96;;;16.84;41.19
47082;BME280;33066;49.296;14.470;2023-10-09T01:17:41;97560.36;;;16.87;41.19
47082;BME280;33066;49.296;14.470;2023-10-09T01:20:07;97557.13;;;16.87;41.12
47082;BME280;33066;49.296;14.470;2023-10-09T01:22:31;97559.53;;;16.87;41.13
47082;BME280;33066;49.296;14.470;2023-10-09T01:24:56;97555.58;;;16.87;41.00
47082;BME280;33066;49.296;14.470;2023-10-09T01:27:22;97548.34;;;16.85;41.01
47082;BME280;33066;49.296;14.470;2023-10-09T01:29:48;97540.39;;;16.80;41.04
47082;BME280;33066;49.296;14.470;2023-10-09T01:32:13;97527.44;;;16.80;41.21
47082;BME280;33066;49.296;14.470;2023-10-09T01:34:38;97523.99;;;16.78;41.09
47082;BME280;33066;49.296;14.470;2023-10-09T01:37:04;97520.47;;;16.79;41.05
47082;BME280;33066;49.296;14.470;2023-10-09T01:39:28;97518.84;;;16.95;41.03
47082;BME280;33066;49.296;14.470;2023-10-09T01:41:54;97521.03;;;16.94;41.08
47082;BME280;33066;49.296;14.470;2023-10-09T01:44:19;97519.12;;;16.72;41.04
47082;BME280;33066;49.296;14.470;2023-10-09T01:46:44;97517.77;;;16.70;41.08
47082;BME280;33066;49.296;14.470;2023-10-09T01:49:09;97517.13;;;16.71;41.07
47082;BME280;33066;49.296;14.470;2023-10-09T01:51:34;97508.60;;;16.97;40.94
47082;BME280;33066;49.296;14.470;2023-10-09T01:54:00;97501.07;;;16.67;40.91
47082;BME280;33066;49.296;14.470;2023-10-09T01:56:25;97499.84;;;16.61;40.97
47082;BME280;33066;49.296;14.470;2023-10-09T01:58:50;97496.32;;;16.62;40.96
47082;BME280;33066;49.296;14.470;2023-10-09T02:01:15;97497.06;;;16.87;41.01
47082;BME280;33066;49.296;14.470;2023-10-09T02:03:40;97499.93;;;16.64;41.04
47082;BME280;33066;49.296;14.470;2023-10-09T02:06:06;97497.77;;;16.63;41.09
47082;BME280;33066;49.296;14.470;2023-10-09T02:08:31;97495.44;;;16.68;40.95
47082;BME280;33066;49.296;14.470;2023-10-09T02:10:56;97495.03;;;16.68;40.87
47082;BME280;33066;49.296;14.470;2023-10-09T02:13:22;97493.37;;;16.94;40.86
47082;BME280;33066;49.296;14.470;2023-10-09T02:15:46;97487.87;;;16.71;40.82
47082;BME280;33066;49.296;14.470;2023-10-09T02:18:13;97479.52;;;16.71;40.77
47082;BME280;33066;49.296;14.470;2023-10-09T02:20:37;97476.39;;;16.71;40.76
47082;BME280;33066;49.296;14.470;2023-10-09T02:23:02;97471.65;;;17.10;40.78
47082;BME280;33066;49.296;14.470;2023-10-09T02:25:28;97461.43;;;16.58;40.79
47082;BME280;33066;49.296;14.470;2023-10-09T02:27:53;97453.20;;;16.56;40.82
47082;BME280;33066;49.296;14.470;2023-10-09T02:30:19;97445.83;;;16.29;40.92
47082;BME280;33066;49.296;14.470;2023-10-09T02:32:44;97437.20;;;17.03;40.88
47082;BME280;33066;49.296;14.470;2023-10-09T02:35:10;97430.92;;;16.48;40.95
47082;BME280;33066;49.296;14.470;2023-10-09T02:37:34;97419.12;;;16.42;41.01
47082;BME280;33066;49.296;14.470;2023-10-09T02:40:00;97417.70;;;16.72;41.32
47082;BME280;33066;49.296;14.470;2023-10-09T02:42:25;97412.48;;;16.49;41.39
47082;BME280;33066;49.296;14.470;2023-10-09T02:44:50;97412.48;;;16.50;41.45
47082;BME280;33066;49.296;14.470;2023-10-09T02:47:15;97414.90;;;16.30;41.42
47082;BME280;33066;49.296;14.470;2023-10-09T02:49:40;97410.70;;;16.57;41.34
47082;BME280;33066;49.296;14.470;2023-10-09T02:52:06;97403.55;;;16.38;41.27
47082;BME280;33066;49.296;14.470;2023-10-09T02:54:31;97399.19;;;16.61;41.25
47082;BME280;33066;49.296;14.470;2023-10-09T02:56:56;97393.97;;;16.37;41.25
47082;BME280;33066;49.296;14.470;2023-10-09T02:59:22;97391.84;;;16.37;41.22
47082;BME280;33066;49.296;14.470;2023-10-09T03:01:47;97385.28;;;16.60;41.18
47082;BME280;33066;49.296;14.470;2023-10-09T03:04:12;97379.20;;;16.55;41.29
47082;BME280;33066;49.296;14.470;2023-10-09T03:06:37;97376.64;;;16.78;41.31
47082;BME280;33066;49.296;14.470;2023-10-09T03:09:02;97376.12;;;16.27;41.35
47082;BME280;33066;49.296;14.470;2023-10-09T03:13:00;97365.36;;;16.47;40.80
47082;BME280;33066;49.296;14.470;2023-10-09T03:15:25;97356.66;;;16.87;40.82
47082;BME280;33066;49.296;14.470;2023-10-09T03:17:50;97358.54;;;16.58;40.90
47082;BME280;33066;49.296;14.470;2023-10-09T03:20:16;97362.41;;;16.54;40.97
47082;BME280;33066;49.296;14.470;2023-10-09T03:22:41;97367.99;;;16.54;40.97
47082;BME280;33066;49.296;14.470;2023-10-09T03:25:07;97366.06;;;16.53;40.98
47082;BME280;33066;49.296;14.470;2023-10-09T03:27:31;97354.40;;;16.52;41.00
47082;BME280;33066;49.296;14.470;2023-10-09T03:29:56;97351.45;;;16.53;40.91
47082;BME280;33066;49.296;14.470;2023-10-09T03:32:22;97348.53;;;16.52;40.92
47082;BME280;33066;49.296;14.470;2023-10-09T03:34:47;97346.81;;;16.27;40.91
47082;BME280;33066;49.296;14.470;2023-10-09T03:37:12;97344.72;;;16.70;40.97
47082;BME280;33066;49.296;14.470;2023-10-09T03:39:37;97341.86;;;16.67;40.95
47082;BME280;33066;49.296;14.470;2023-10-09T03:42:03;97341.93;;;16.40;40.99
47082;BME280;33066;49.296;14.470;2023-10-09T03:44:28;97343.06;;;16.60;41.07
47082;BME280;33066;49.296;14.470;2023-10-09T03:46:53;97337.53;;;16.36;41.05
47082;BME280;33066;49.296;14.470;2023-10-09T03:49:18;97329.69;;;16.35;41.03
47082;BME280;33066;49.296;14.470;2023-10-09T03:51:43;97322.90;;;16.35;40.97
47082;BME280;33066;49.296;14.470;2023-10-09T03:54:08;97321.42;;;16.29;41.03
47082;BME280;33066;49.296;14.470;2023-10-09T03:56:34;97313.29;;;16.49;41.08
47082;BME280;33066;49.296;14.470;2023-10-09T03:58:59;97312.01;;;16.24;41.00
47082;BME280;33066;49.296;14.470;2023-10-09T04:01:24;97309.41;;;16.42;41.04
47082;BME280;33066;49.296;14.470;2023-10-09T04:03:50;97300.10;;;16.15;41.05
47082;BME280;33066;49.296;14.470;2023-10-09T04:06:14;97296.07;;;16.14;41.02
47082;BME280;33066;49.296;14.470;2023-10-09T04:08:40;97287.29;;;16.09;41.02
47082;BME280;33066;49.296;14.470;2023-10-09T04:11:05;97273.92;;;16.05;41.05
47082;BME280;33066;49.296;14.470;2023-10-09T04:13:31;97266.47;;;16.28;40.98
47082;BME280;33066;49.296;14.470;2023-10-09T04:15:55;97260.48;;;16.04;40.90
47082;BME280;33066;49.296;14.470;2023-10-09T04:18:21;97252.16;;;15.99;40.90
47082;BME280;33066;49.296;14.470;2023-10-09T04:20:46;97246.22;;;15.98;40.89
47082;BME280;33066;49.296;14.470;2023-10-09T04:23:11;97249.94;;;16.43;40.93
47082;BME280;33066;49.296;14.470;2023-10-09T04:25:37;97252.47;;;16.41;40.92
47082;BME280;33066;49.296;14.470;2023-10-09T04:28:02;97252.42;;;16.13;40.98
47082;BME280;33066;49.296;14.470;2023-10-09T04:30:27;97251.63;;;16.13;40.91
47082;BME280;33066;49.296;14.470;2023-10-09T04:32:52;97250.95;;;16.14;40.81
47082;BME280;33066;49.296;14.470;2023-10-09T04:35:18;97245.01;;;16.37;40.77
47082;BME280;33066;49.296;14.470;2023-10-09T04:37:43;97237.15;;;16.10;40.78
47082;BME280;33066;49.296;14.470;2023-10-09T04:40:09;97230.96;;;16.11;40.82
47082;BME280;33066;49.296;14.470;2023-10-09T04:42:33;97225.17;;;16.10;40.79
47082;BME280;33066;49.296;14.470;2023-10-09T04:44:58;97210.97;;;16.09;40.73
47082;BME280;33066;49.296;14.470;2023-10-09T04:47:24;97204.79;;;16.34;40.71
47082;BME280;33066;49.296;14.470;2023-10-09T04:49:49;97202.26;;;16.13;40.66
47082;BME280;33066;49.296;14.470;2023-10-09T04:52:15;97203.32;;;16.37;40.66
47082;BME280;33066;49.296;14.470;2023-10-09T04:54:40;97199.14;;;16.15;40.67
47082;BME280;33066;49.296;14.470;2023-10-09T04:57:05;97199.06;;;16.38;40.64
47082;BME280;33066;49.296;14.470;2023-10-09T04:59:30;97198.80;;;16.34;40.64
47082;BME280;33066;49.296;14.470;2023-10-09T05:01:55;97193.55;;;16.11;40.63
47082;BME280;33066;49.296;14.470;2023-10-09T05:04:21;97192.42;;;15.87;40.59
47082;BME280;33066;49.296;14.470;2023-10-09T05:06:46;97193.65;;;16.08;40.59
47082;BME280;33066;49.296;14.470;2023-10-09T05:09:11;97191.75;;;16.09;40.57
47082;BME280;33066;49.296;14.470;2023-10-09T05:11:36;97186.50;;;16.10;40.48
47082;BME280;33066;49.296;14.470;2023-10-09T05:14:02;97187.99;;;16.31;40.49
47082;BME280;33066;49.296;14.470;2023-10-09T05:16:27;97183.12;;;16.08;40.47
47082;BME280;33066;49.296;14.470;2023-10-09T05:18:53;97178.19;;;16.33;40.47
47082;BME280;33066;49.296;14.470;2023-10-09T05:21:17;97177.59;;;15.85;40.50
47082;BME280;33066;49.296;14.470;2023-10-09T05:23:43;97175.29;;;16.06;40.52
47082;BME280;33066;49.296;14.470;2023-10-09T05:26:08;97175.49;;;16.11;40.39
47082;BME280;33066;49.296;14.470;2023-10-09T05:28:33;97168.21;;;16.21;40.02
47082;BME280;33066;49.296;14.470;2023-10-09T05:30:58;97167.44;;;16.42;40.11
47082;BME280;33066;49.296;14.470;2023-10-09T05:33:23;97167.95;;;16.35;40.27
47082;BME280;33066;49.296;14.470;2023-10-09T05:35:48;97172.74;;;16.08;40.33
47082;BME280;33066;49.296;14.470;2023-10-09T05:38:14;97166.58;;;16.29;40.34
47082;BME280;33066;49.296;14.470;2023-10-09T05:40:39;97171.31;;;16.31;40.36
47082;BME280;33066;49.296;14.470;2023-10-09T05:43:04;97174.25;;;16.31;40.34
47082;BME280;33066;49.296;14.470;2023-10-09T05:45:29;97181.87;;;16.09;40.40
47082;BME280;33066;49.296;14.470;2023-10-09T05:47:54;97175.49;;;16.35;40.39
47082;BME280;33066;49.296;14.470;2023-10-09T05:50:20;97178.38;;;16.17;40.41
47082;BME280;33066;49.296;14.470;2023-10-09T05:52:45;97181.61;;;16.49;40.37
47082;BME280;33066;49.296;14.470;2023-10-09T05:55:10;97184.49;;;16.28;40.28
47082;BME280;33066;49.296;14.470;2023-10-09T05:57:35;97168.55;;;16.09;40.21
47082;BME280;33066;49.296;14.470;2023-10-09T06:00:00;97185.42;;;16.57;40.21
47082;BME280;33066;49.296;14.470;2023-10-09T06:02:26;97174.23;;;16.20;39.77
47082;BME280;33066;49.296;14.470;2023-10-09T06:04:51;97192.85;;;16.45;39.94
47082;BME280;33066;49.296;14.470;2023-10-09T06:07:17;97201.30;;;16.19;40.13
47082;BME280;33066;49.296;14.470;2023-10-09T06:09:42;97202.01;;;16.45;40.23
47082;BME280;33066;49.296;14.470;2023-10-09T06:12:07;97201.76;;;16.46;40.23
47082;BME280;33066;49.296;14.470;2023-10-09T06:14:32;97198.10;;;16.49;40.19
47082;BME280;33066;49.296;14.470;2023-10-09T06:16:58;97202.01;;;16.21;40.17
47082;BME280;33066;49.296;14.470;2023-10-09T06:19:24;97201.78;;;16.48;40.25
47082;BME280;33066;49.296;14.470;2023-10-09T06:21:48;97201.06;;;16.53;40.34
47082;BME280;33066;49.296;14.470;2023-10-09T06:24:14;97185.98;;;16.33;40.23
47082;BME280;33066;49.296;14.470;2023-10-09T06:26:38;97179.90;;;16.60;40.15
47082;BME280;33066;49.296;14.470;2023-10-09T06:29:04;97194.19;;;16.39;40.20
47082;BME280;33066;49.296;14.470;2023-10-09T06:31:29;97197.12;;;16.35;40.30
47082;BME280;33066;49.296;14.470;2023-10-09T06:33:54;97195.73;;;16.33;40.34
47082;BME280;33066;49.296;14.470;2023-10-09T06:36:20;97205.22;;;16.39;40.33
47082;BME280;33066;49.296;14.470;2023-10-09T06:38:45;97175.17;;;16.37;40.30
47082;BME280;33066;49.296;14.470;2023-10-09T06:41:12;97220.62;;;16.27;40.38
47082;BME280;33066;49.296;14.470;2023-10-09T06:43:36;97200.85;;;16.29;40.43
47082;BME280;33066;49.296;14.470;2023-10-09T06:46:01;97199.49;;;16.37;40.38
47082;BME280;33066;49.296;14.470;2023-10-09T06:48:27;97202.55;;;16.43;40.29
47082;BME280;33066;49.296;14.470;2023-10-09T06:50:52;97191.49;;;16.29;40.17
47082;BME280;33066;49.296;14.470;2023-10-09T06:53:17;97200.54;;;16.58;40.33
47082;BME280;33066;49.296;14.470;2023-10-09T06:55:42;97205.88;;;16.80;40.33
47082;BME280;33066;49.296;14.470;2023-10-09T06:58:08;97214.70;;;16.81;40.24
47082;BME280;33066;49.296;14.470;2023-10-09T07:00:38;97216.83;;;16.59;40.06
47082;BME280;33066;49.296;14.470;2023-10-09T07:02:58;97213.58;;;16.88;40.12
47082;BME280;33066;49.296;14.470;2023-10-09T07:05:24;97209.81;;;16.74;39.94
47082;BME280;33066;49.296;14.470;2023-10-09T07:07:50;97207.79;;;17.02;39.95
47082;BME280;33066;49.296;14.470;2023-10-09T07:10:15;97219.08;;;16.81;40.02
47082;BME280;33066;49.296;14.470;2023-10-09T07:12:41;97221.36;;;16.74;40.13
47082;BME280;33066;49.296;14.470;2023-10-09T07:15:07;97214.84;;;16.76;40.16
47082;BME280;33066;49.296;14.470;2023-10-09T07:17:31;97207.37;;;16.85;40.07
47082;BME280;33066;49.296;14.470;2023-10-09T07:19:56;97199.96;;;17.11;39.89
47082;BME280;33066;49.296;14.470;2023-10-09T07:22:22;97202.63;;;16.62;39.97
47082;BME280;33066;49.296;14.470;2023-10-09T07:24:48;97200.24;;;16.84;40.07
47082;BME280;33066;49.296;14.470;2023-10-09T07:27:13;97204.88;;;16.80;40.10
47082;BME280;33066;49.296;14.470;2023-10-09T07:29:38;97211.78;;;16.77;40.24
47082;BME280;33066;49.296;14.470;2023-10-09T07:32:03;97209.06;;;16.98;40.37
47082;BME280;33066;49.296;14.470;2023-10-09T07:34:28;97204.42;;;16.84;40.25
47082;BME280;33066;49.296;14.470;2023-10-09T07:36:54;97196.02;;;16.93;40.20
47082;BME280;33066;49.296;14.470;2023-10-09T07:39:18;97200.02;;;17.02;40.04
47082;BME280;33066;49.296;14.470;2023-10-09T07:41:44;97209.69;;;17.04;40.05
47082;BME280;33066;49.296;14.470;2023-10-09T07:44:09;97217.37;;;17.06;40.07
47082;BME280;33066;49.296;14.470;2023-10-09T07:46:36;97222.94;;;17.07;40.21
47082;BME280;33066;49.296;14.470;2023-10-09T07:49:01;97218.09;;;16.90;40.06
47082;BME280;33066;49.296;14.470;2023-10-09T07:51:26;97218.61;;;16.90;40.04
47082;BME280;33066;49.296;14.470;2023-10-09T07:53:52;97216.84;;;17.04;40.10
47082;BME280;33066;49.296;14.470;2023-10-09T07:56:16;97220.94;;;17.01;40.40
47082;BME280;33066;49.296;14.470;2023-10-09T07:58:41;97226.12;;;17.12;40.34
47082;BME280;33066;49.296;14.470;2023-10-09T08:01:06;97232.50;;;16.95;40.45
47082;BME280;33066;49.296;14.470;2023-10-09T08:03:32;97227.54;;;17.04;40.52
47082;BME280;33066;49.296;14.470;2023-10-09T08:05:58;97233.03;;;17.41;40.38
47082;BME280;33066;49.296;14.470;2023-10-09T08:08:23;97239.68;;;17.20;40.41
47082;BME280;33066;49.296;14.470;2023-10-09T08:10:49;97241.22;;;17.75;40.22
47082;BME280;33066;49.296;14.470;2023-10-09T08:13:14;97242.50;;;17.74;40.23
47082;BME280;33066;49.296;14.470;2023-10-09T08:15:40;97248.67;;;17.07;40.21
47082;BME280;33066;49.296;14.470;2023-10-09T08:18:06;97256.81;;;17.63;40.27
47082;BME280;33066;49.296;14.470;2023-10-09T08:20:31;97265.09;;;17.22;40.28
47082;BME280;33066;49.296;14.470;2023-10-09T08:22:56;97259.71;;;17.46;40.29
47082;BME280;33066;49.296;14.470;2023-10-09T08:25:22;97258.90;;;17.72;40.22
47082;BME280;33066;49.296;14.470;2023-10-09T08:27:47;97264.03;;;17.80;40.26
47082;BME280;33066;49.296;14.470;2023-10-09T08:30:13;97264.53;;;17.40;40.29
47082;BME280;33066;49.296;14.470;2023-10-09T08:32:38;97269.53;;;17.67;40.37
47082;BME280;33066;49.296;14.470;2023-10-09T08:35:03;97275.03;;;17.42;40.41
47082;BME280;33066;49.296;14.470;2023-10-09T08:37:29;97271.34;;;17.42;40.58
47082;BME280;33066;49.296;14.470;2023-10-09T08:39:54;97279.47;;;17.63;40.92
47082;BME280;33066;49.296;14.470;2023-10-09T08:42:20;97275.50;;;17.62;41.12
47082;BME280;33066;49.296;14.470;2023-10-09T08:44:45;97260.44;;;17.61;41.17
47082;BME280;33066;49.296;14.470;2023-10-09T08:47:10;97269.12;;;17.30;41.27
47082;BME280;33066;49.296;14.470;2023-10-09T08:49:36;97278.14;;;17.18;41.37
47082;BME280;33066;49.296;14.470;2023-10-09T08:52:01;97279.24;;;17.23;41.62
47082;BME280;33066;49.296;14.470;2023-10-09T08:54:28;97276.71;;;17.25;42.02
47082;BME280;33066;49.296;14.470;2023-10-09T08:56:56;97285.04;;;17.76;41.82
47082;BME280;33066;49.296;14.470;2023-10-09T08:59:18;97284.50;;;17.59;42.08
47082;BME280;33066;49.296;14.470;2023-10-09T09:01:44;97270.84;;;17.66;42.13
47082;BME280;33066;49.296;14.470;2023-10-09T09:04:09;97267.98;;;17.46;42.28
47082;BME280;33066;49.296;14.470;2023-10-09T09:06:38;97255.95;;;17.32;42.21
47082;BME280;33066;49.296;14.470;2023-10-09T09:11:24;97253.30;;;17.36;42.86
47082;BME280;33066;49.296;14.470;2023-10-09T09:16:17;97250.24;;;16.96;43.28
47082;BME280;33066;49.296;14.470;2023-10-09T09:18:49;97252.04;;;17.22;43.71
47082;BME280;33066;49.296;14.470;2023-10-09T09:23:31;97251.67;;;17.01;43.72
47082;BME280;33066;49.296;14.470;2023-10-09T09:25:56;97255.79;;;17.25;44.04
47082;BME280;33066;49.296;14.470;2023-10-09T09:28:22;97250.35;;;17.07;44.43
47082;BME280;33066;49.296;14.470;2023-10-09T09:30:48;97238.17;;;17.36;44.17
47082;BME280;33066;49.296;14.470;2023-10-09T09:33:21;97233.89;;;17.39;44.03
47082;BME280;33066;49.296;14.470;2023-10-09T09:35:38;97236.01;;;17.41;44.27
47082;BME280;33066;49.296;14.470;2023-10-09T09:38:04;97241.50;;;17.23;44.29
47082;BME280;33066;49.296;14.470;2023-10-09T09:40:29;97252.77;;;17.51;44.45
47082;BME280;33066;49.296;14.470;2023-10-09T09:42:57;97263.86;;;17.58;44.58
47082;BME280;33066;49.296;14.470;2023-10-09T09:45:20;97257.17;;;17.41;44.61
47082;BME280;33066;49.296;14.470;2023-10-09T09:47:45;97260.50;;;17.50;44.71
47082;BME280;33066;49.296;14.470;2023-10-09T09:50:11;97255.76;;;17.83;44.69
47082;BME280;33066;49.296;14.470;2023-10-09T09:52:37;97253.90;;;16.20;44.58
47082;BME280;33066;49.296;14.470;2023-10-09T09:55:02;97253.63;;;18.19;43.05
47082;BME280;33066;49.296;14.470;2023-10-09T09:57:27;97248.79;;;18.15;43.32
47082;BME280;33066;49.296;14.470;2023-10-09T09:59:53;97254.44;;;18.15;43.81
47082;BME280;33066;49.296;14.470;2023-10-09T10:02:23;97253.79;;;17.99;44.16
47082;BME280;33066;49.296;14.470;2023-10-09T10:04:44;97260.92;;;17.90;44.43
47082;BME280;33066;49.296;14.470;2023-10-09T10:07:09;97261.97;;;17.87;44.54
47082;BME280;33066;49.296;14.470;2023-10-09T10:09:36;97264.45;;;17.84;44.70
47082;BME280;33066;49.296;14.470;2023-10-09T10:11:59;97263.58;;;17.88;44.75
47082;BME280;33066;49.296;14.470;2023-10-09T10:14:32;97265.32;;;17.93;44.87
47082;BME280;33066;49.296;14.470;2023-10-09T10:17:00;97265.50;;;18.00;44.96
47082;BME280;33066;49.296;14.470;2023-10-09T10:19:17;97272.65;;;18.10;45.04
47082;BME280;33066;49.296;14.470;2023-10-09T10:21:42;97274.35;;;17.93;45.14
47082;BME280;33066;49.296;14.470;2023-10-09T10:26:33;97270.13;;;18.03;45.30
47082;BME280;33066;49.296;14.470;2023-10-09T10:29:14;97260.84;;;18.30;45.34
47082;BME280;33066;49.296;14.470;2023-10-09T10:34:03;97254.35;;;18.14;45.56
47082;BME280;33066;49.296;14.470;2023-10-09T10:36:15;97257.32;;;18.33;45.75
47082;BME280;33066;49.296;14.470;2023-10-09T10:38:40;97261.70;;;18.05;45.94
47082;BME280;33066;49.296;14.470;2023-10-09T10:41:10;97264.94;;;18.31;46.24
47082;BME280;33066;49.296;14.470;2023-10-09T10:43:31;97263.65;;;18.08;46.27
47082;BME280;33066;49.296;14.470;2023-10-09T10:46:01;97262.43;;;18.30;46.56
47082;BME280;33066;49.296;14.470;2023-10-09T10:48:22;97260.98;;;18.30;46.82
47082;BME280;33066;49.296;14.470;2023-10-09T10:50:47;97258.23;;;18.19;47.04
47082;BME280;33066;49.296;14.470;2023-10-09T10:53:13;97259.14;;;18.20;47.20
47082;BME280;33066;49.296;14.470;2023-10-09T10:55:39;97254.00;;;18.25;47.26
47082;BME280;33066;49.296;14.470;2023-10-09T10:58:14;97265.15;;;18.33;47.36
47082;BME280;33066;49.296;14.470;2023-10-09T11:00:31;97255.21;;;18.41;47.28
47082;BME280;33066;49.296;14.470;2023-10-09T11:02:55;97261.20;;;18.48;47.30
47082;BME280;33066;49.296;14.470;2023-10-09T11:05:25;97255.52;;;18.62;47.20
47082;BME280;33066;49.296;14.470;2023-10-09T11:07:46;97248.11;;;18.28;47.09
47082;BME280;33066;49.296;14.470;2023-10-09T11:10:11;97248.07;;;18.54;47.11
47082;BME280;33066;49.296;14.470;2023-10-09T11:12:44;97244.33;;;18.44;47.26
47082;BME280;33066;49.296;14.470;2023-10-09T11:15:03;97247.74;;;18.23;47.20
47082;BME280;33066;49.296;14.470;2023-10-09T11:17:28;97248.83;;;18.23;47.25
47082;BME280;33066;49.296;14.470;2023-10-09T11:19:53;97233.38;;;18.35;47.34
47082;BME280;33066;49.296;14.470;2023-10-09T11:22:19;97240.65;;;18.10;47.75
47082;BME280;33066;49.296;14.470;2023-10-09T11:24:46;97232.36;;;17.90;47.94
47082;BME280;33066;49.296;14.470;2023-10-09T11:27:09;97234.16;;;18.20;48.01
47082;BME280;33066;49.296;14.470;2023-10-09T11:29:35;97229.50;;;18.24;47.90
47082;BME280;33066;49.296;14.470;2023-10-09T11:32:01;97227.51;;;17.99;47.90
47082;BME280;33066;49.296;14.470;2023-10-09T11:34:26;97238.25;;;18.28;47.60
47082;BME280;33066;49.296;14.470;2023-10-09T11:36:51;97248.93;;;18.31;47.39
47082;BME280;33066;49.296;14.470;2023-10-09T11:39:25;97247.55;;;18.23;47.01
47082;BME280;33066;49.296;14.470;2023-10-09T11:41:42;97254.68;;;18.23;46.96
47082;BME280;33066;49.296;14.470;2023-10-09T11:44:07;97256.21;;;18.22;46.98
47082;BME280;33066;49.296;14.470;2023-10-09T11:46:32;97257.93;;;18.23;47.33
47082;BME280;33066;49.296;14.470;2023-10-09T11:49:05;97256.95;;;18.14;47.29
47082;BME280;33066;49.296;14.470;2023-10-09T11:51:23;97251.02;;;18.18;47.57
47082;BME280;33066;49.296;14.470;2023-10-09T11:53:49;97251.91;;;17.92;47.69
47082;BME280;33066;49.296;14.470;2023-10-09T11:56:14;97239.81;;;18.02;47.94
47082;BME280;33066;49.296;14.470;2023-10-09T11:58:40;97234.67;;;17.72;47.96
47082;BME280;33066;49.296;14.470;2023-10-09T12:01:11;97244.57;;;17.82;48.06
47082;BME280;33066;49.296;14.470;2023-10-09T12:03:32;97226.60;;;17.69;48.39
47082;BME280;33066;49.296;14.470;2023-10-09T12:05:56;97227.43;;;17.67;48.33
47082;BME280;33066;49.296;14.470;2023-10-09T12:08:21;97231.81;;;17.73;48.47
47082;BME280;33066;49.296;14.470;2023-10-09T12:10:46;97217.63;;;18.02;48.21
47082;BME280;33066;49.296;14.470;2023-10-09T12:13:12;97221.82;;;17.80;48.16
47082;BME280;33066;49.296;14.470;2023-10-09T12:15:38;97220.79;;;17.91;48.26
47082;BME280;33066;49.296;14.470;2023-10-09T12:18:03;97218.65;;;17.74;48.18
47082;BME280;33066;49.296;14.470;2023-10-09T12:20:28;97210.57;;;17.72;48.39
47082;BME280;33066;49.296;14.470;2023-10-09T12:22:52;97203.73;;;17.72;48.27
47082;BME280;33066;49.296;14.470;2023-10-09T12:25:18;97203.74;;;17.94;47.95
47082;BME280;33066;49.296;14.470;2023-10-09T12:27:44;97210.56;;;17.42;48.31
47082;BME280;33066;49.296;14.470;2023-10-09T12:30:11;97206.09;;;17.58;48.70
47082;BME280;33066;49.296;14.470;2023-10-09T12:32:36;97204.56;;;17.63;48.44
47082;BME280;33066;49.296;14.470;2023-10-09T12:35:01;97199.48;;;17.55;48.24
47082;BME280;33066;49.296;14.470;2023-10-09T12:37:26;97195.25;;;17.64;48.54
47082;BME280;33066;49.296;14.470;2023-10-09T12:39:51;97198.89;;;17.32;48.67
47082;BME280;33066;49.296;14.470;2023-10-09T12:42:17;97199.39;;;17.62;48.69
47082;BME280;33066;49.296;14.470;2023-10-09T12:44:42;97211.39;;;17.81;48.67
47082;BME280;33066;49.296;14.470;2023-10-09T12:47:09;97217.61;;;17.52;48.67
47082;BME280;33066;49.296;14.470;2023-10-09T12:49:33;97215.60;;;17.51;48.59
47082;BME280;33066;49.296;14.470;2023-10-09T12:51:58;97208.26;;;17.52;48.37